createdAt,value
2019-03-23T00:00:55.787Z,10.50
2019-03-23T00:05:47.609Z,10.40
2019-03-23T00:10:39.698Z,10.30
2019-03-23T00:15:31.658Z,10.10
2019-03-23T00:20:23.670Z,10.00
2019-03-23T00:25:15.655Z,9.90
2019-03-23T00:30:07.673Z,9.80
2019-03-23T00:34:59.520Z,9.80
2019-03-23T00:39:51.570Z,9.60
2019-03-23T00:44:41.298Z,9.50
2019-03-23T00:49:33.402Z,9.40
2019-03-23T00:54:25.562Z,9.40
2019-03-23T00:59:17.357Z,9.30
2019-03-23T01:04:09.619Z,9.30
2019-03-23T01:08:58.987Z,9.30
2019-03-23T01:13:50.999Z,9.30
2019-03-23T01:18:40.706Z,9.10
2019-03-23T01:23:33.033Z,8.90
2019-03-23T01:28:24.204Z,8.70
2019-03-23T01:33:14.493Z,8.50
2019-03-23T01:38:03.846Z,8.30
2019-03-23T01:42:55.630Z,8.10
2019-03-23T01:47:45.304Z,7.80
2019-03-23T01:52:35.570Z,7.50
2019-03-23T01:57:27.391Z,7.40
2019-03-23T02:02:19.386Z,7.40
2019-03-23T02:07:17.447Z,7.30
2019-03-23T02:12:06.866Z,7.30
2019-03-23T02:16:57.722Z,7.30
2019-03-23T02:21:49.201Z,7.30
2019-03-23T02:26:40.192Z,7.30
2019-03-23T02:31:31.026Z,7.20
2019-03-23T02:36:23.525Z,7.20
2019-03-23T02:41:14.651Z,7.20
2019-03-23T02:46:06.745Z,7.20
2019-03-23T02:50:58.473Z,7.30
2019-03-23T02:55:50.249Z,7.30
2019-03-23T03:00:42.209Z,7.30
2019-03-23T03:05:34.354Z,7.30
2019-03-23T03:10:26.452Z,7.30
2019-03-23T03:15:19.418Z,7.30
2019-03-23T03:20:11.236Z,7.30
2019-03-23T03:25:03.239Z,7.40
2019-03-23T03:29:55.260Z,7.50
2019-03-23T03:34:47.314Z,7.50
2019-03-23T03:39:39.166Z,7.60
2019-03-23T03:44:31.194Z,7.60
2019-03-23T03:49:23.222Z,7.60
2019-03-23T03:54:15.128Z,7.60
2019-03-23T03:59:07.219Z,7.70
2019-03-23T04:04:01.308Z,7.70
2019-03-23T04:08:52.993Z,7.70
2019-03-23T04:13:44.922Z,7.80
2019-03-23T04:18:36.744Z,7.80
2019-03-23T04:23:30.919Z,7.80
2019-03-23T04:28:22.397Z,7.90
2019-03-23T04:33:13.910Z,7.90
2019-03-23T04:38:06.034Z,7.90
2019-03-23T04:42:58.078Z,7.90
2019-03-23T04:47:50.260Z,8.00
2019-03-23T04:52:41.958Z,8.00
2019-03-23T04:57:33.933Z,8.00
2019-03-23T05:02:25.972Z,8.00
2019-03-23T05:07:25.548Z,8.00
2019-03-23T05:12:16.175Z,7.90
2019-03-23T05:17:07.971Z,8.00
2019-03-23T05:21:59.779Z,8.00
2019-03-23T05:26:49.165Z,8.00
2019-03-23T05:31:38.895Z,8.00
2019-03-23T05:36:30.670Z,8.10
2019-03-23T05:41:22.083Z,8.10
2019-03-23T05:46:09.293Z,8.10
2019-03-23T05:50:59.062Z,8.10
2019-03-23T05:55:51.219Z,8.10
2019-03-23T06:00:43.309Z,8.20
2019-03-23T06:05:34.866Z,8.10
2019-03-23T06:10:41.433Z,8.20
2019-03-23T06:15:30.621Z,8.20
2019-03-23T06:20:19.629Z,8.20
2019-03-23T06:25:11.333Z,8.30
2019-03-23T06:30:03.421Z,8.30
2019-03-23T06:34:55.592Z,8.30
2019-03-23T06:39:46.583Z,8.30
2019-03-23T06:44:36.682Z,8.30
2019-03-23T06:49:26.266Z,8.40
2019-03-23T06:54:19.634Z,8.40
2019-03-23T06:59:09.426Z,8.50
2019-03-23T07:03:59.516Z,8.50
2019-03-23T07:08:53.496Z,8.60
2019-03-23T07:13:45.078Z,8.60
2019-03-23T07:18:35.852Z,8.70
2019-03-23T07:23:27.922Z,8.70
2019-03-23T07:28:20.589Z,8.70
2019-03-23T07:33:12.612Z,8.80
2019-03-23T07:38:04.114Z,8.80
2019-03-23T07:42:55.918Z,8.80
2019-03-23T07:47:48.044Z,8.70
2019-03-23T07:52:40.141Z,8.80
2019-03-23T07:57:32.212Z,8.90
2019-03-23T08:02:24.125Z,8.90
2019-03-23T08:07:15.983Z,9.00
2019-03-23T08:12:08.273Z,9.00
2019-03-23T08:17:00.125Z,9.10
2019-03-23T08:21:52.087Z,9.20
2019-03-23T08:26:43.993Z,9.30
2019-03-23T08:31:36.168Z,9.40
2019-03-23T08:36:28.120Z,9.50
2019-03-23T08:41:20.156Z,9.60
2019-03-23T08:46:12.331Z,9.70
2019-03-23T08:51:04.127Z,9.70
2019-03-23T08:55:56.150Z,9.60
2019-03-23T09:00:47.995Z,9.70
2019-03-23T09:05:39.959Z,9.60
2019-03-23T09:10:32.243Z,9.60
2019-03-23T09:15:24.203Z,9.70
2019-03-23T09:20:17.004Z,9.70
2019-03-23T09:25:09.077Z,9.80
2019-03-23T09:30:01.194Z,9.80
2019-03-23T09:34:53.493Z,9.90
2019-03-23T09:39:45.576Z,10.10
2019-03-23T09:44:37.534Z,10.30
2019-03-23T09:49:29.861Z,10.40
2019-03-23T09:54:23.902Z,10.50
2019-03-23T09:59:15.494Z,10.50
2019-03-23T10:04:07.698Z,10.60
2019-03-23T10:08:59.945Z,10.70
2019-03-23T10:13:52.118Z,10.80
2019-03-23T10:18:44.326Z,10.80
2019-03-23T10:23:36.577Z,10.80
2019-03-23T10:28:28.770Z,10.90
2019-03-23T10:33:21.018Z,11.00
2019-03-23T10:38:13.245Z,11.30
2019-03-23T10:43:05.563Z,11.50
2019-03-23T10:47:57.997Z,11.80
2019-03-23T10:52:50.478Z,12.20
2019-03-23T10:57:42.696Z,12.40
2019-03-23T11:02:35.225Z,12.70
2019-03-23T11:07:27.699Z,13.00
2019-03-23T11:12:19.676Z,13.10
2019-03-23T11:17:11.547Z,12.80
2019-03-23T11:22:05.699Z,12.60
2019-03-23T11:26:57.255Z,12.60
2019-03-23T11:31:49.084Z,12.70
2019-03-23T11:36:41.031Z,12.50
2019-03-23T11:41:33.148Z,12.50
2019-03-23T11:46:25.260Z,12.50
2019-03-23T11:51:17.707Z,12.60
2019-03-23T11:56:09.969Z,12.70
2019-03-23T12:01:02.183Z,12.80
2019-03-23T12:05:54.051Z,12.70
2019-03-23T12:10:45.902Z,12.50
2019-03-23T12:15:37.805Z,12.40
2019-03-23T12:20:30.168Z,12.30
2019-03-23T12:25:22.291Z,12.40
2019-03-23T12:30:14.553Z,12.50
2019-03-23T12:35:06.754Z,12.50
2019-03-23T12:39:59.509Z,12.50
2019-03-23T12:44:51.910Z,12.50
2019-03-23T12:49:44.271Z,12.60
2019-03-23T12:54:36.147Z,12.70
2019-03-23T12:59:28.387Z,12.70
2019-03-23T13:04:20.592Z,12.80
2019-03-23T13:09:12.982Z,12.80
2019-03-23T13:14:05.021Z,12.70
2019-03-23T13:18:57.334Z,12.70
2019-03-23T13:23:49.130Z,12.70
2019-03-23T13:28:41.530Z,12.70
2019-03-23T13:33:33.682Z,12.60
2019-03-23T13:38:25.760Z,12.60
2019-03-23T13:43:17.981Z,12.60
2019-03-23T13:48:10.285Z,12.60
2019-03-23T13:53:02.444Z,12.60
2019-03-23T13:57:54.564Z,12.60
2019-03-23T14:02:46.573Z,12.60
2019-03-23T14:07:39.016Z,12.60
2019-03-23T14:12:31.197Z,12.60
2019-03-23T14:17:23.329Z,12.50
2019-03-23T14:22:17.520Z,12.40
2019-03-23T14:27:09.767Z,12.40
2019-03-23T14:32:01.765Z,12.30
2019-03-23T14:36:53.736Z,12.30
2019-03-23T14:41:48.382Z,12.30
2019-03-23T14:46:39.929Z,12.30
2019-03-23T14:51:31.935Z,12.20
2019-03-23T14:56:24.419Z,12.20
2019-03-23T15:01:17.609Z,12.20
2019-03-23T15:06:09.319Z,12.20
2019-03-23T15:11:01.506Z,12.10
2019-03-23T15:15:53.561Z,12.10
2019-03-23T15:20:45.731Z,12.20
2019-03-23T15:25:39.959Z,12.20
2019-03-23T15:30:31.543Z,12.20
2019-03-23T15:35:25.552Z,12.20
2019-03-23T15:40:17.484Z,12.10
2019-03-23T15:45:11.629Z,12.10
2019-03-23T15:50:05.295Z,12.10
2019-03-23T15:54:57.000Z,12.10
2019-03-23T15:59:48.981Z,12.10
2019-03-23T16:04:41.173Z,12.10
2019-03-23T16:09:33.590Z,12.10
2019-03-23T16:14:25.774Z,12.10
2019-03-23T16:19:18.038Z,12.00
2019-03-23T16:24:10.275Z,12.00
2019-03-23T16:29:02.299Z,11.90
2019-03-23T16:33:54.360Z,11.90
2019-03-23T16:38:46.585Z,11.90
2019-03-23T16:43:39.345Z,11.90
2019-03-23T16:48:31.708Z,11.90
2019-03-23T16:53:25.990Z,11.90
2019-03-23T16:58:17.922Z,11.80
2019-03-23T17:03:10.037Z,11.80
2019-03-23T17:08:02.170Z,11.80
2019-03-23T17:12:56.432Z,11.70
2019-03-23T17:17:47.994Z,11.70
2019-03-23T17:22:39.853Z,11.70
2019-03-23T17:27:31.964Z,11.70
2019-03-23T17:32:24.236Z,11.70
2019-03-23T17:37:16.521Z,11.70
2019-03-23T17:42:09.173Z,11.70
2019-03-23T17:47:01.361Z,11.70
2019-03-23T17:51:56.019Z,11.60
2019-03-23T17:56:47.500Z,11.40
2019-03-23T18:01:39.406Z,11.20
2019-03-23T18:06:31.219Z,11.20
2019-03-23T18:11:23.489Z,11.00
2019-03-23T18:16:15.818Z,11.00
2019-03-23T18:21:07.945Z,10.90
2019-03-23T18:26:00.024Z,10.80
2019-03-23T18:30:54.097Z,10.70
2019-03-23T18:35:45.436Z,10.60
2019-03-23T18:40:37.612Z,10.60
2019-03-23T18:45:29.663Z,10.50
2019-03-23T18:50:21.841Z,10.40
2019-03-23T18:55:13.926Z,10.50
2019-03-23T19:00:06.044Z,10.40
2019-03-23T19:04:58.385Z,10.40
2019-03-23T19:09:50.472Z,10.40
2019-03-23T19:14:42.443Z,10.40
2019-03-23T19:19:35.364Z,10.40
2019-03-23T19:24:27.437Z,10.30
2019-03-23T19:29:19.368Z,10.30
2019-03-23T19:34:11.575Z,10.30
2019-03-23T19:39:03.370Z,10.30
2019-03-23T19:43:55.436Z,10.30
2019-03-23T19:48:47.704Z,10.30
2019-03-23T19:53:39.736Z,10.30
2019-03-23T19:58:31.809Z,10.30
2019-03-23T20:03:23.915Z,10.30
2019-03-23T20:08:15.959Z,10.30
2019-03-23T20:13:08.071Z,10.30
2019-03-23T20:18:00.260Z,10.30
2019-03-23T20:22:53.491Z,10.40
2019-03-23T20:27:45.529Z,10.40
2019-03-23T20:32:37.476Z,10.30
2019-03-23T20:37:29.481Z,10.30
2019-03-23T20:42:21.673Z,10.30
2019-03-23T20:47:13.684Z,10.30
2019-03-23T20:52:05.532Z,10.30
2019-03-23T20:56:57.563Z,10.20
2019-03-23T21:01:49.785Z,10.20
2019-03-23T21:06:41.878Z,10.20
2019-03-23T21:11:35.903Z,10.20
2019-03-23T21:16:27.446Z,10.10
2019-03-23T21:21:19.588Z,10.20
2019-03-23T21:26:11.762Z,10.10
2019-03-23T21:31:03.598Z,10.10
2019-03-23T21:35:55.536Z,10.10
2019-03-23T21:40:47.665Z,10.10
2019-03-23T21:45:39.944Z,10.00
2019-03-23T21:50:31.932Z,10.00
2019-03-23T21:55:23.971Z,10.00
2019-03-23T22:00:16.116Z,10.00
2019-03-23T22:05:08.418Z,10.00
2019-03-23T22:10:02.496Z,10.00
2019-03-23T22:14:54.382Z,10.00
2019-03-23T22:19:46.420Z,9.90
2019-03-23T22:24:38.622Z,9.90
2019-03-23T22:29:32.662Z,10.00
2019-03-23T22:34:26.409Z,9.90
2019-03-23T22:39:18.274Z,9.90
2019-03-23T22:44:10.435Z,9.90
2019-03-23T22:49:03.293Z,9.90
2019-03-23T22:53:56.429Z,9.80
2019-03-23T22:58:50.348Z,9.80
2019-03-23T23:03:42.666Z,9.70
2019-03-23T23:08:37.211Z,9.70
2019-03-23T23:13:28.973Z,9.60
2019-03-23T23:18:21.347Z,9.60
2019-03-23T23:23:13.130Z,9.50
2019-03-23T23:28:05.082Z,9.40
2019-03-23T23:32:57.226Z,9.30
2019-03-23T23:37:49.317Z,9.30
2019-03-23T23:42:41.318Z,9.30
2019-03-23T23:47:33.456Z,9.20
2019-03-23T23:52:25.658Z,9.10
2019-03-23T23:57:17.776Z,9.00
